Dong Fang Chun — BRZL — position and weather

sailwx.info

Track history (hours):
 
Tides and Currents Weather Stations Pressure Air Temp Water Temp Dewpoint Dewpoint Depression Visibility Wind Speed Wind Dir Waves Ship Positions

Dong Fang Chun

Last reported at 2015-May-05 04:26 UTC. Time now 2015-May-05 06:11 UTC.
Position N 22°22' E 113°49'.

Length 23 m; draft 1.4 m.

Type: High speed craft. MMSI: 412461320.

Date/timePositionNaut miles runAvg speedWind from/ knotsBaromVisibWave heightAir tempDewpointWater temp
2015-May-05 04:26N 22°22' E 113°49'4 5.0
2015-May-05 03:32N 22°25' E 113°53'4 1.3
2015-May-05 00:34N 22°29' E 113°55'0 0.1
2015-May-04 23:33N 22°29' E 113°55'3 0.3
2015-May-04 13:33N 22°26' E 113°54'2114.1
2015-May-04 12:05N 22°14' E 113°35'2020.8
2015-May-04 11:08N 22°25' E 113°53'20 6.6
2015-May-04 08:09N 22°14' E 113°35'1321.7
2015-May-04 07:32N 22°21' E 113°47'6 5.8
2015-May-04 06:33N 22°25' E 113°52'1913.8
2015-May-04 05:10N 22°14' E 113°35'1420.1
2015-May-04 04:29N 22°22' E 113°48'7 7.3
2015-May-04 03:33N 22°26' E 113°53'2115.2
2015-May-04 02:12N 22°14' E 113°35'2020.7
2015-May-04 01:14N 22°25' E 113°53'4 5.3
2015-May-04 00:33N 22°29' E 113°55'0 0.0
2015-May-03 14:05N 22°29' E 113°55'2019.6
2015-May-03 13:05N 22°16' E 113°38'1 2.2
2015-May-03 12:31N 22°16' E 113°37'2121.6
2015-May-03 11:34N 22°28' E 113°55'1916.8
2015-May-03 10:25N 22°16' E 113°38'2010.5
2015-May-03 08:33N 22°29' E 113°55'0 0.0
2015-May-03 07:33N 22°29' E 113°55'0 0.0
2015-May-03 06:33N 22°29' E 113°55'2115.9
2015-May-03 05:13N 22°15' E 113°37'1212.0
2015-May-03 04:16N 22°21' E 113°47'911.9
2015-May-03 03:32N 22°27' E 113°54'2221.4
2015-May-03 02:31N 22°14' E 113°36'2015.1
2015-May-03 01:14N 22°26' E 113°53'3 5.0
2015-May-03 00:33N 22°29' E 113°55'0 0.0
2015-May-02 14:33N 22°29' E 113°55'2321.3
2015-May-02 13:29N 22°14' E 113°36'2311.8
2015-May-02 11:33N 22°29' E 113°55'2117.4
2015-May-02 10:20N 22°15' E 113°37'2111.9
2015-May-02 08:33N 22°29' E 113°55'0 0.0
2015-May-02 07:33N 22°29' E 113°55'0 0.0
2015-May-02 06:33N 22°29' E 113°55'3 1.1
2015-May-02 03:33N 22°26' E 113°53'0 0.1
2015-May-02 00:30N 22°26' E 113°53'3 3.4
2015-May-01 23:33N 22°29' E 113°55'0 0.0
2015-May-01 14:25N 22°29' E 113°55'2119.8
2015-May-01 13:23N 22°15' E 113°38'9 9.4
2015-May-01 12:24N 22°21' E 113°46'1213.6
2015-May-01 11:33N 22°29' E 113°55'2118.0
2015-May-01 10:25N 22°15' E 113°38'2111.2
2015-May-01 08:34N 22°29' E 113°55'2222.3
2015-May-01 07:33N 22°14' E 113°36'2016.6
2015-May-01 06:22N 22°26' E 113°53'3 1.1
2015-May-01 03:33N 22°29' E 113°55'2217.5
2015-May-01 02:18N 22°15' E 113°36'1916.4
2015-May-01 01:08N 22°26' E 113°53'3 5.7
2015-May-01 00:33N 22°29' E 113°55'0 0.0
2015-Apr-30 23:33N 22°29' E 113°55'0 0.0
2015-Apr-30 14:29N 22°29' E 113°55'2320.8
2015-Apr-30 13:23N 22°14' E 113°35'2016.8
2015-Apr-30 12:10N 22°26' E 113°53'3 4.8
2015-Apr-30 11:33N 22°29' E 113°55'2220.8
2015-Apr-30 10:29N 22°14' E 113°36'1 0.7
2015-Apr-30 09:29N 22°14' E 113°35'2019.6
2015-Apr-30 08:27N 22°26' E 113°53'19 9.0
2015-Apr-30 06:19N 22°15' E 113°36'1922.3
2015-Apr-30 05:29N 22°25' E 113°53'4 4.0
2015-Apr-30 04:33N 22°29' E 113°55'0 0.0
2015-Apr-30 03:33N 22°29' E 113°55'0 0.0
2015-Apr-29 13:24N 22°29' E 113°55'2017.4
2015-Apr-29 12:15N 22°16' E 113°38'2 2.8
2015-Apr-29 11:24N 22°14' E 113°36'1920.5
2015-Apr-29 10:28N 22°25' E 113°53'4 0.9
2015-Apr-29 06:34N 22°28' E 113°55'0 0.1
2015-Apr-29 03:33N 22°28' E 113°55'0 0.1
2015-Apr-29 00:33N 22°29' E 113°55'0 0.3
2015-Apr-28 23:32N 22°29' E 113°55'0 0.0
2015-Apr-28 22:33N 22°29' E 113°55'0 0.0
2015-Apr-28 13:33N 22°29' E 113°55'2317.7
2015-Apr-28 12:15N 22°14' E 113°35'2017.3
2015-Apr-28 11:04N 22°26' E 113°53'0 0.5
2015-Apr-28 10:34N 22°26' E 113°53'3 0.7
2015-Apr-28 06:34N 22°29' E 113°55'2115.4
2015-Apr-28 05:12N 22°15' E 113°37'2112.9
2015-Apr-28 03:33N 22°28' E 113°55'0 0.0
2015-Apr-28 00:33N 22°29' E 113°55'0 0.2
2015-Apr-27 23:33N 22°29' E 113°55'22 1.8
2015-Apr-27 11:21N 22°15' E 113°36'1921.3
2015-Apr-27 10:27N 22°26' E 113°53'2 1.9
2015-Apr-27 09:29N 22°25' E 113°52'5 1.6
2015-Apr-27 06:33N 22°29' E 113°55'0 0.1
2015-Apr-27 03:33N 22°28' E 113°55'0 0.0
2015-Apr-27 00:33N 22°29' E 113°55'0 0.3
2015-Apr-26 23:33N 22°29' E 113°55'0 0.0
2015-Apr-26 12:06N 22°29' E 113°55'5 7.1
2015-Apr-26 11:28N 22°25' E 113°52'17 8.5
2015-Apr-26 09:32N 22°16' E 113°37'2121.3
2015-Apr-26 08:33N 22°29' E 113°55'2115.4
2015-Apr-26 07:13N 22°16' E 113°38'1110.2
2015-Apr-26 06:09N 22°22' E 113°47'1016.5
2015-Apr-26 05:33N 22°29' E 113°55'2119.7
2015-Apr-26 04:29N 22°15' E 113°37'1814.2
2015-Apr-26 03:14N 22°25' E 113°53'1 1.3
2015-Apr-26 02:33N 22°26' E 113°53'0 0.1
2015-Apr-26 00:13N 22°26' E 113°53'3 4.6
2015-Apr-25 23:33N 22°29' E 113°55'0 0.0
2015-Apr-25 12:33N 22°29' E 113°55'0 0.0
2015-Apr-25 11:33N 22°29' E 113°55'2115.6
2015-Apr-25 10:14N 22°15' E 113°38'2 1.2
2015-Apr-25 08:15N 22°14' E 113°35'2019.9
2015-Apr-25 07:13N 22°26' E 113°53'3 4.3
2015-Apr-25 06:34N 22°29' E 113°55'0 0.0
2015-Apr-25 04:31N 22°29' E 113°55'  
Track history (hours):
 
Tides and Currents Weather Stations Pressure Air Temp Water Temp Dewpoint Dewpoint Depression Visibility Wind Speed Wind Dir Waves Ship Positions

Dong Fang Chun

Last reported at 2015-May-05 04:26 UTC. Time now 2015-May-05 06:11 UTC.
Position N 22°22' E 113°49'.

Length 23 m; draft 1.4 m.

Type: High speed craft. MMSI: 412461320.

Date/timePositionNaut miles runAvg speedWind from/ knotsBaromVisibWave heightAir tempDewpointWater temp
2015-May-05 04:26N 22°22' E 113°49'4 5.0
2015-May-05 03:32N 22°25' E 113°53'4 1.3
2015-May-05 00:34N 22°29' E 113°55'0 0.1
2015-May-04 23:33N 22°29' E 113°55'3 0.3
2015-May-04 13:33N 22°26' E 113°54'2114.1
2015-May-04 12:05N 22°14' E 113°35'2020.8
2015-May-04 11:08N 22°25' E 113°53'20 6.6
2015-May-04 08:09N 22°14' E 113°35'1321.7
2015-May-04 07:32N 22°21' E 113°47'6 5.8
2015-May-04 06:33N 22°25' E 113°52'1913.8
2015-May-04 05:10N 22°14' E 113°35'1420.1
2015-May-04 04:29N 22°22' E 113°48'7 7.3
2015-May-04 03:33N 22°26' E 113°53'2115.2
2015-May-04 02:12N 22°14' E 113°35'2020.7
2015-May-04 01:14N 22°25' E 113°53'4 5.3
2015-May-04 00:33N 22°29' E 113°55'0 0.0
2015-May-03 14:05N 22°29' E 113°55'2019.6
2015-May-03 13:05N 22°16' E 113°38'1 2.2
2015-May-03 12:31N 22°16' E 113°37'2121.6
2015-May-03 11:34N 22°28' E 113°55'1916.8
2015-May-03 10:25N 22°16' E 113°38'2010.5
2015-May-03 08:33N 22°29' E 113°55'0 0.0
2015-May-03 07:33N 22°29' E 113°55'0 0.0
2015-May-03 06:33N 22°29' E 113°55'2115.9
2015-May-03 05:13N 22°15' E 113°37'1212.0
2015-May-03 04:16N 22°21' E 113°47'911.9
2015-May-03 03:32N 22°27' E 113°54'2221.4
2015-May-03 02:31N 22°14' E 113°36'2015.1
2015-May-03 01:14N 22°26' E 113°53'3 5.0
2015-May-03 00:33N 22°29' E 113°55'0 0.0
2015-May-02 14:33N 22°29' E 113°55'2321.3
2015-May-02 13:29N 22°14' E 113°36'2311.8
2015-May-02 11:33N 22°29' E 113°55'2117.4
2015-May-02 10:20N 22°15' E 113°37'2111.9
2015-May-02 08:33N 22°29' E 113°55'0 0.0
2015-May-02 07:33N 22°29' E 113°55'0 0.0
2015-May-02 06:33N 22°29' E 113°55'3 1.1
2015-May-02 03:33N 22°26' E 113°53'0 0.1
2015-May-02 00:30N 22°26' E 113°53'3 3.4
2015-May-01 23:33N 22°29' E 113°55'0 0.0
2015-May-01 14:25N 22°29' E 113°55'2119.8
2015-May-01 13:23N 22°15' E 113°38'9 9.4
2015-May-01 12:24N 22°21' E 113°46'1213.6
2015-May-01 11:33N 22°29' E 113°55'2118.0
2015-May-01 10:25N 22°15' E 113°38'2111.2
2015-May-01 08:34N 22°29' E 113°55'2222.3
2015-May-01 07:33N 22°14' E 113°36'2016.6
2015-May-01 06:22N 22°26' E 113°53'3 1.1
2015-May-01 03:33N 22°29' E 113°55'2217.5
2015-May-01 02:18N 22°15' E 113°36'1916.4
2015-May-01 01:08N 22°26' E 113°53'3 5.7
2015-May-01 00:33N 22°29' E 113°55'0 0.0
2015-Apr-30 23:33N 22°29' E 113°55'0 0.0
2015-Apr-30 14:29N 22°29' E 113°55'2320.8
2015-Apr-30 13:23N 22°14' E 113°35'2016.8
2015-Apr-30 12:10N 22°26' E 113°53'3 4.8
2015-Apr-30 11:33N 22°29' E 113°55'2220.8
2015-Apr-30 10:29N 22°14' E 113°36'1 0.7
2015-Apr-30 09:29N 22°14' E 113°35'2019.6
2015-Apr-30 08:27N 22°26' E 113°53'19 9.0
2015-Apr-30 06:19N 22°15' E 113°36'1922.3
2015-Apr-30 05:29N 22°25' E 113°53'4 4.0
2015-Apr-30 04:33N 22°29' E 113°55'0 0.0
2015-Apr-30 03:33N 22°29' E 113°55'0 0.0
2015-Apr-29 13:24N 22°29' E 113°55'2017.4
2015-Apr-29 12:15N 22°16' E 113°38'2 2.8
2015-Apr-29 11:24N 22°14' E 113°36'1920.5
2015-Apr-29 10:28N 22°25' E 113°53'4 0.9
2015-Apr-29 06:34N 22°28' E 113°55'0 0.1
2015-Apr-29 03:33N 22°28' E 113°55'0 0.1
2015-Apr-29 00:33N 22°29' E 113°55'0 0.3
2015-Apr-28 23:32N 22°29' E 113°55'0 0.0
2015-Apr-28 22:33N 22°29' E 113°55'0 0.0
2015-Apr-28 13:33N 22°29' E 113°55'2317.7
2015-Apr-28 12:15N 22°14' E 113°35'2017.3
2015-Apr-28 11:04N 22°26' E 113°53'0 0.5
2015-Apr-28 10:34N 22°26' E 113°53'3 0.7
2015-Apr-28 06:34N 22°29' E 113°55'2115.4
2015-Apr-28 05:12N 22°15' E 113°37'2112.9
2015-Apr-28 03:33N 22°28' E 113°55'0 0.0
2015-Apr-28 00:33N 22°29' E 113°55'0 0.2
2015-Apr-27 23:33N 22°29' E 113°55'22 1.8
2015-Apr-27 11:21N 22°15' E 113°36'1921.3
2015-Apr-27 10:27N 22°26' E 113°53'2 1.9
2015-Apr-27 09:29N 22°25' E 113°52'5 1.6
2015-Apr-27 06:33N 22°29' E 113°55'0 0.1
2015-Apr-27 03:33N 22°28' E 113°55'0 0.0
2015-Apr-27 00:33N 22°29' E 113°55'0 0.3
2015-Apr-26 23:33N 22°29' E 113°55'0 0.0
2015-Apr-26 12:06N 22°29' E 113°55'5 7.1
2015-Apr-26 11:28N 22°25' E 113°52'17 8.5
2015-Apr-26 09:32N 22°16' E 113°37'2121.3
2015-Apr-26 08:33N 22°29' E 113°55'2115.4
2015-Apr-26 07:13N 22°16' E 113°38'1110.2
2015-Apr-26 06:09N 22°22' E 113°47'1016.5
2015-Apr-26 05:33N 22°29' E 113°55'2119.7
2015-Apr-26 04:29N 22°15' E 113°37'1814.2
2015-Apr-26 03:14N 22°25' E 113°53'1 1.3
2015-Apr-26 02:33N 22°26' E 113°53'0 0.1
2015-Apr-26 00:13N 22°26' E 113°53'3 4.6
2015-Apr-25 23:33N 22°29' E 113°55'0 0.0
2015-Apr-25 12:33N 22°29' E 113°55'0 0.0
2015-Apr-25 11:33N 22°29' E 113°55'2115.6
2015-Apr-25 10:14N 22°15' E 113°38'2 1.2
2015-Apr-25 08:15N 22°14' E 113°35'2019.9
2015-Apr-25 07:13N 22°26' E 113°53'3 4.3
2015-Apr-25 06:34N 22°29' E 113°55'0 0.0
2015-Apr-25 04:31N 22°29' E 113°55'  

Dump ship's entire track history